sensor_id;sensor_type;location;lat;lon;timestamp;P1;durP1;ratioP1;P2;durP2;ratioP2
64244;SDS011;50584;29.058;-110.966;2023-07-02T00:01:21;18.48;;;3.95;;
64244;SDS011;50584;29.058;-110.966;2023-07-02T00:03:47;16.30;;;3.40;;
64244;SDS011;50584;29.058;-110.966;2023-07-02T00:06:13;12.93;;;3.67;;
64244;SDS011;50584;29.058;-110.966;2023-07-02T00:08:38;21.58;;;3.33;;
64244;SDS011;50584;29.058;-110.966;2023-07-02T00:11:05;13.68;;;3.00;;
64244;SDS011;50584;29.058;-110.966;2023-07-02T00:13:31;13.68;;;3.33;;
64244;SDS011;50584;29.058;-110.966;2023-07-02T00:15:57;22.83;;;3.10;;
64244;SDS011;50584;29.058;-110.966;2023-07-02T00:18:24;8.75;;;3.40;;
64244;SDS011;50584;29.058;-110.966;2023-07-02T00:21:01;20.25;;;3.97;;
64244;SDS011;50584;29.058;-110.966;2023-07-02T00:23:30;20.58;;;4.57;;
64244;SDS011;50584;29.058;-110.966;2023-07-02T00:25:56;6.70;;;3.30;;
64244;SDS011;50584;29.058;-110.966;2023-07-02T00:28:22;18.33;;;3.30;;
64244;SDS011;50584;29.058;-110.966;2023-07-02T00:30:48;11.93;;;3.78;;
64244;SDS011;50584;29.058;-110.966;2023-07-02T00:33:13;10.77;;;3.45;;
64244;SDS011;50584;29.058;-110.966;2023-07-02T00:35:39;14.73;;;3.88;;
64244;SDS011;50584;29.058;-110.966;2023-07-02T00:38:05;14.38;;;3.05;;
64244;SDS011;50584;29.058;-110.966;2023-07-02T00:40:31;14.63;;;3.42;;
64244;SDS011;50584;29.058;-110.966;2023-07-02T00:42:56;8.30;;;3.17;;
64244;SDS011;50584;29.058;-110.966;2023-07-02T00:45:22;16.75;;;3.47;;
64244;SDS011;50584;29.058;-110.966;2023-07-02T00:47:53;9.45;;;3.10;;
64244;SDS011;50584;29.058;-110.966;2023-07-02T00:50:19;8.38;;;3.22;;
64244;SDS011;50584;29.058;-110.966;2023-07-02T00:52:44;11.63;;;3.08;;
64244;SDS011;50584;29.058;-110.966;2023-07-02T00:55:10;12.52;;;3.00;;
64244;SDS011;50584;29.058;-110.966;2023-07-02T00:57:36;12.88;;;3.38;;
64244;SDS011;50584;29.058;-110.966;2023-07-02T01:00:02;11.30;;;3.47;;
64244;SDS011;50584;29.058;-110.966;2023-07-02T01:02:28;12.57;;;3.15;;
64244;SDS011;50584;29.058;-110.966;2023-07-02T01:04:55;12.07;;;3.08;;
64244;SDS011;50584;29.058;-110.966;2023-07-02T01:07:23;12.80;;;3.25;;
64244;SDS011;50584;29.058;-110.966;2023-07-02T01:09:49;8.70;;;3.15;;
64244;SDS011;50584;29.058;-110.966;2023-07-02T01:12:15;11.48;;;3.13;;
64244;SDS011;50584;29.058;-110.966;2023-07-02T01:14:47;10.65;;;3.20;;
64244;SDS011;50584;29.058;-110.966;2023-07-02T01:17:13;7.45;;;2.83;;
64244;SDS011;50584;29.058;-110.966;2023-07-02T01:22:19;7.30;;;3.00;;
64244;SDS011;50584;29.058;-110.966;2023-07-02T01:24:45;5.65;;;3.00;;
64244;SDS011;50584;29.058;-110.966;2023-07-02T01:27:15;10.17;;;2.80;;
64244;SDS011;50584;29.058;-110.966;2023-07-02T01:29:41;7.05;;;2.95;;
64244;SDS011;50584;29.058;-110.966;2023-07-02T01:32:07;13.27;;;3.42;;
64244;SDS011;50584;29.058;-110.966;2023-07-02T01:34:36;5.50;;;2.80;;
64244;SDS011;50584;29.058;-110.966;2023-07-02T01:37:02;9.77;;;2.97;;
64244;SDS011;50584;29.058;-110.966;2023-07-02T01:39:28;6.35;;;2.50;;
64244;SDS011;50584;29.058;-110.966;2023-07-02T01:41:55;9.80;;;2.78;;
64244;SDS011;50584;29.058;-110.966;2023-07-02T01:44:21;7.07;;;2.67;;
64244;SDS011;50584;29.058;-110.966;2023-07-02T01:46:47;8.50;;;2.75;;
64244;SDS011;50584;29.058;-110.966;2023-07-02T01:49:17;8.00;;;2.58;;
64244;SDS011;50584;29.058;-110.966;2023-07-02T01:51:49;6.13;;;2.30;;
64244;SDS011;50584;29.058;-110.966;2023-07-02T01:54:15;11.60;;;2.95;;
64244;SDS011;50584;29.058;-110.966;2023-07-02T01:56:41;8.32;;;2.28;;
64244;SDS011;50584;29.058;-110.966;2023-07-02T01:59:07;6.68;;;2.40;;
64244;SDS011;50584;29.058;-110.966;2023-07-02T02:01:32;3.65;;;2.60;;
64244;SDS011;50584;29.058;-110.966;2023-07-02T02:03:58;11.77;;;2.55;;
64244;SDS011;50584;29.058;-110.966;2023-07-02T02:06:24;14.98;;;2.83;;
64244;SDS011;50584;29.058;-110.966;2023-07-02T02:08:50;9.32;;;2.50;;
64244;SDS011;50584;29.058;-110.966;2023-07-02T02:11:16;7.45;;;2.50;;
64244;SDS011;50584;29.058;-110.966;2023-07-02T02:13:41;14.23;;;2.80;;
64244;SDS011;50584;29.058;-110.966;2023-07-02T02:16:07;10.95;;;3.13;;
64244;SDS011;50584;29.058;-110.966;2023-07-02T02:18:33;13.00;;;3.08;;
64244;SDS011;50584;29.058;-110.966;2023-07-02T02:20:59;12.75;;;2.80;;
64244;SDS011;50584;29.058;-110.966;2023-07-02T02:23:24;11.20;;;2.90;;
64244;SDS011;50584;29.058;-110.966;2023-07-02T02:25:50;16.65;;;3.10;;
64244;SDS011;50584;29.058;-110.966;2023-07-02T02:28:16;14.65;;;3.13;;
64244;SDS011;50584;29.058;-110.966;2023-07-02T02:30:42;8.45;;;3.45;;
64244;SDS011;50584;29.058;-110.966;2023-07-02T02:33:07;14.27;;;3.25;;
64244;SDS011;50584;29.058;-110.966;2023-07-02T02:35:33;8.13;;;3.25;;
64244;SDS011;50584;29.058;-110.966;2023-07-02T02:38:01;12.52;;;3.13;;
64244;SDS011;50584;29.058;-110.966;2023-07-02T02:40:27;12.60;;;3.25;;
64244;SDS011;50584;29.058;-110.966;2023-07-02T02:42:53;11.40;;;2.67;;
64244;SDS011;50584;29.058;-110.966;2023-07-02T02:45:19;14.02;;;3.08;;
64244;SDS011;50584;29.058;-110.966;2023-07-02T02:47:48;12.30;;;3.10;;
64244;SDS011;50584;29.058;-110.966;2023-07-02T02:50:14;8.47;;;3.60;;
64244;SDS011;50584;29.058;-110.966;2023-07-02T02:52:40;11.90;;;3.55;;
64244;SDS011;50584;29.058;-110.966;2023-07-02T02:55:06;15.80;;;3.70;;
64244;SDS011;50584;29.058;-110.966;2023-07-02T02:57:33;17.33;;;3.83;;
64244;SDS011;50584;29.058;-110.966;2023-07-02T02:59:59;31.02;;;3.83;;
64244;SDS011;50584;29.058;-110.966;2023-07-02T03:02:25;13.77;;;3.78;;
64244;SDS011;50584;29.058;-110.966;2023-07-02T03:04:51;26.65;;;4.00;;
64244;SDS011;50584;29.058;-110.966;2023-07-02T03:07:16;16.02;;;3.88;;
64244;SDS011;50584;29.058;-110.966;2023-07-02T03:09:42;14.68;;;3.55;;
64244;SDS011;50584;29.058;-110.966;2023-07-02T03:12:08;10.07;;;3.35;;
64244;SDS011;50584;29.058;-110.966;2023-07-02T03:14:34;17.75;;;4.18;;
64244;SDS011;50584;29.058;-110.966;2023-07-02T03:17:00;14.10;;;3.60;;
64244;SDS011;50584;29.058;-110.966;2023-07-02T03:19:26;19.10;;;4.13;;
64244;SDS011;50584;29.058;-110.966;2023-07-02T03:21:51;25.83;;;4.13;;
64244;SDS011;50584;29.058;-110.966;2023-07-02T03:24:17;14.23;;;3.85;;
64244;SDS011;50584;29.058;-110.966;2023-07-02T03:26:43;16.83;;;4.22;;
64244;SDS011;50584;29.058;-110.966;2023-07-02T03:29:09;20.00;;;3.78;;
64244;SDS011;50584;29.058;-110.966;2023-07-02T03:31:35;18.05;;;3.70;;
64244;SDS011;50584;29.058;-110.966;2023-07-02T03:34:03;17.88;;;3.60;;
64244;SDS011;50584;29.058;-110.966;2023-07-02T03:36:29;21.17;;;3.72;;
64244;SDS011;50584;29.058;-110.966;2023-07-02T03:38:55;6.25;;;4.03;;
64244;SDS011;50584;29.058;-110.966;2023-07-02T03:41:20;18.92;;;4.20;;
64244;SDS011;50584;29.058;-110.966;2023-07-02T03:43:46;17.30;;;3.95;;
64244;SDS011;50584;29.058;-110.966;2023-07-02T03:46:13;12.77;;;3.40;;
64244;SDS011;50584;29.058;-110.966;2023-07-02T03:48:39;12.93;;;4.15;;
64244;SDS011;50584;29.058;-110.966;2023-07-02T03:51:05;15.48;;;3.95;;
64244;SDS011;50584;29.058;-110.966;2023-07-02T03:53:31;18.33;;;4.15;;
64244;SDS011;50584;29.058;-110.966;2023-07-02T03:55:57;11.23;;;4.28;;
64244;SDS011;50584;29.058;-110.966;2023-07-02T03:58:23;11.93;;;3.80;;
64244;SDS011;50584;29.058;-110.966;2023-07-02T04:00:48;12.93;;;3.75;;
64244;SDS011;50584;29.058;-110.966;2023-07-02T04:03:17;19.90;;;4.03;;
64244;SDS011;50584;29.058;-110.966;2023-07-02T04:05:43;12.98;;;3.97;;
64244;SDS011;50584;29.058;-110.966;2023-07-02T04:08:09;15.82;;;4.30;;
64244;SDS011;50584;29.058;-110.966;2023-07-02T04:10:35;13.13;;;4.45;;
64244;SDS011;50584;29.058;-110.966;2023-07-02T04:13:00;17.05;;;4.20;;
64244;SDS011;50584;29.058;-110.966;2023-07-02T04:15:26;21.55;;;4.45;;
64244;SDS011;50584;29.058;-110.966;2023-07-02T04:17:52;23.30;;;4.57;;
64244;SDS011;50584;29.058;-110.966;2023-07-02T04:20:19;15.85;;;4.35;;
64244;SDS011;50584;29.058;-110.966;2023-07-02T04:22:45;20.08;;;4.30;;
64244;SDS011;50584;29.058;-110.966;2023-07-02T04:25:14;18.13;;;4.03;;
64244;SDS011;50584;29.058;-110.966;2023-07-02T04:27:43;17.17;;;4.22;;
64244;SDS011;50584;29.058;-110.966;2023-07-02T04:30:12;20.63;;;4.13;;
64244;SDS011;50584;29.058;-110.966;2023-07-02T04:32:39;14.55;;;3.67;;
64244;SDS011;50584;29.058;-110.966;2023-07-02T04:35:08;16.23;;;3.72;;
64244;SDS011;50584;29.058;-110.966;2023-07-02T04:37:34;8.38;;;3.78;;
64244;SDS011;50584;29.058;-110.966;2023-07-02T04:40:00;13.82;;;3.85;;
64244;SDS011;50584;29.058;-110.966;2023-07-02T04:42:27;14.63;;;4.20;;
64244;SDS011;50584;29.058;-110.966;2023-07-02T04:44:53;16.70;;;4.18;;
64244;SDS011;50584;29.058;-110.966;2023-07-02T04:47:19;9.48;;;3.72;;
64244;SDS011;50584;29.058;-110.966;2023-07-02T04:49:45;14.00;;;4.10;;
64244;SDS011;50584;29.058;-110.966;2023-07-02T04:52:11;11.77;;;3.75;;
64244;SDS011;50584;29.058;-110.966;2023-07-02T04:54:37;7.93;;;3.75;;
64244;SDS011;50584;29.058;-110.966;2023-07-02T04:57:03;10.88;;;4.00;;
64244;SDS011;50584;29.058;-110.966;2023-07-02T04:59:29;6.75;;;3.45;;
64244;SDS011;50584;29.058;-110.966;2023-07-02T05:01:55;7.90;;;3.38;;
64244;SDS011;50584;29.058;-110.966;2023-07-02T05:04:20;7.30;;;3.65;;
64244;SDS011;50584;29.058;-110.966;2023-07-02T05:06:46;12.88;;;4.30;;
64244;SDS011;50584;29.058;-110.966;2023-07-02T05:09:12;8.65;;;3.75;;
64244;SDS011;50584;29.058;-110.966;2023-07-02T05:11:38;8.50;;;3.47;;
64244;SDS011;50584;29.058;-110.966;2023-07-02T05:14:04;8.98;;;3.55;;
64244;SDS011;50584;29.058;-110.966;2023-07-02T05:16:30;17.88;;;4.28;;
64244;SDS011;50584;29.058;-110.966;2023-07-02T05:18:55;10.32;;;3.50;;
64244;SDS011;50584;29.058;-110.966;2023-07-02T05:21:21;14.90;;;4.05;;
64244;SDS011;50584;29.058;-110.966;2023-07-02T05:23:47;12.60;;;4.18;;
64244;SDS011;50584;29.058;-110.966;2023-07-02T05:26:13;12.85;;;4.05;;
64244;SDS011;50584;29.058;-110.966;2023-07-02T05:28:39;10.20;;;3.58;;
64244;SDS011;50584;29.058;-110.966;2023-07-02T05:31:05;3.92;;;3.40;;
64244;SDS011;50584;29.058;-110.966;2023-07-02T05:33:31;14.10;;;3.60;;
64244;SDS011;50584;29.058;-110.966;2023-07-02T05:35:58;15.00;;;3.80;;
64244;SDS011;50584;29.058;-110.966;2023-07-02T05:38:24;16.08;;;3.80;;
64244;SDS011;50584;29.058;-110.966;2023-07-02T05:40:50;12.70;;;3.30;;
64244;SDS011;50584;29.058;-110.966;2023-07-02T05:43:16;8.38;;;3.42;;
64244;SDS011;50584;29.058;-110.966;2023-07-02T05:45:42;10.05;;;3.42;;
64244;SDS011;50584;29.058;-110.966;2023-07-02T05:48:07;8.98;;;3.60;;
64244;SDS011;50584;29.058;-110.966;2023-07-02T05:50:33;8.32;;;3.38;;
64244;SDS011;50584;29.058;-110.966;2023-07-02T05:52:59;14.10;;;3.53;;
64244;SDS011;50584;29.058;-110.966;2023-07-02T05:55:25;15.07;;;4.97;;
64244;SDS011;50584;29.058;-110.966;2023-07-02T05:57:50;13.10;;;6.40;;
64244;SDS011;50584;29.058;-110.966;2023-07-02T06:00:16;8.88;;;6.55;;
64244;SDS011;50584;29.058;-110.966;2023-07-02T06:02:42;11.60;;;6.28;;
64244;SDS011;50584;29.058;-110.966;2023-07-02T06:05:08;16.40;;;6.85;;
64244;SDS011;50584;29.058;-110.966;2023-07-02T06:07:33;13.60;;;4.25;;
64244;SDS011;50584;29.058;-110.966;2023-07-02T06:09:59;6.30;;;3.90;;
64244;SDS011;50584;29.058;-110.966;2023-07-02T06:12:25;11.25;;;5.47;;
64244;SDS011;50584;29.058;-110.966;2023-07-02T06:14:51;9.50;;;4.30;;
64244;SDS011;50584;29.058;-110.966;2023-07-02T06:17:16;9.57;;;4.15;;
64244;SDS011;50584;29.058;-110.966;2023-07-02T06:19:44;8.63;;;3.45;;
64244;SDS011;50584;29.058;-110.966;2023-07-02T06:22:09;8.18;;;3.35;;
64244;SDS011;50584;29.058;-110.966;2023-07-02T06:24:35;8.55;;;3.67;;
64244;SDS011;50584;29.058;-110.966;2023-07-02T06:27:01;10.20;;;3.67;;
64244;SDS011;50584;29.058;-110.966;2023-07-02T06:29:27;7.68;;;3.50;;
64244;SDS011;50584;29.058;-110.966;2023-07-02T06:31:54;4.78;;;3.10;;
64244;SDS011;50584;29.058;-110.966;2023-07-02T06:34:20;12.60;;;3.63;;
64244;SDS011;50584;29.058;-110.966;2023-07-02T06:36:46;8.98;;;3.45;;
64244;SDS011;50584;29.058;-110.966;2023-07-02T06:39:11;15.32;;;4.05;;
64244;SDS011;50584;29.058;-110.966;2023-07-02T06:41:37;7.95;;;3.40;;
64244;SDS011;50584;29.058;-110.966;2023-07-02T06:44:03;6.10;;;3.53;;
64244;SDS011;50584;29.058;-110.966;2023-07-02T06:46:29;3.78;;;3.42;;
64244;SDS011;50584;29.058;-110.966;2023-07-02T06:48:55;7.32;;;3.33;;
64244;SDS011;50584;29.058;-110.966;2023-07-02T06:51:21;10.95;;;3.75;;
64244;SDS011;50584;29.058;-110.966;2023-07-02T06:53:47;11.93;;;4.07;;
64244;SDS011;50584;29.058;-110.966;2023-07-02T06:56:13;7.38;;;3.35;;
64244;SDS011;50584;29.058;-110.966;2023-07-02T06:58:39;7.95;;;3.67;;
64244;SDS011;50584;29.058;-110.966;2023-07-02T07:01:05;9.07;;;3.20;;
64244;SDS011;50584;29.058;-110.966;2023-07-02T07:03:33;7.18;;;3.80;;
64244;SDS011;50584;29.058;-110.966;2023-07-02T07:05:58;8.73;;;3.25;;
64244;SDS011;50584;29.058;-110.966;2023-07-02T07:08:24;7.72;;;3.40;;
64244;SDS011;50584;29.058;-110.966;2023-07-02T07:10:50;19.15;;;3.92;;
64244;SDS011;50584;29.058;-110.966;2023-07-02T07:13:16;11.30;;;3.10;;
64244;SDS011;50584;29.058;-110.966;2023-07-02T07:15:41;10.13;;;3.80;;
64244;SDS011;50584;29.058;-110.966;2023-07-02T07:18:08;12.88;;;3.70;;
64244;SDS011;50584;29.058;-110.966;2023-07-02T07:20:34;6.90;;;3.50;;
64244;SDS011;50584;29.058;-110.966;2023-07-02T07:23:01;8.88;;;3.40;;
64244;SDS011;50584;29.058;-110.966;2023-07-02T07:25:27;7.70;;;3.30;;
64244;SDS011;50584;29.058;-110.966;2023-07-02T07:27:52;4.07;;;2.97;;
64244;SDS011;50584;29.058;-110.966;2023-07-02T07:30:19;8.88;;;3.42;;
64244;SDS011;50584;29.058;-110.966;2023-07-02T07:32:48;6.68;;;3.00;;
64244;SDS011;50584;29.058;-110.966;2023-07-02T07:35:14;8.65;;;3.58;;
64244;SDS011;50584;29.058;-110.966;2023-07-02T07:37:40;5.03;;;3.20;;
64244;SDS011;50584;29.058;-110.966;2023-07-02T07:40:06;6.45;;;3.33;;
64244;SDS011;50584;29.058;-110.966;2023-07-02T07:42:32;6.43;;;3.45;;
64244;SDS011;50584;29.058;-110.966;2023-07-02T07:44:58;6.28;;;3.08;;
64244;SDS011;50584;29.058;-110.966;2023-07-02T07:47:23;8.50;;;3.47;;
64244;SDS011;50584;29.058;-110.966;2023-07-02T07:49:49;15.07;;;3.80;;
64244;SDS011;50584;29.058;-110.966;2023-07-02T07:52:15;3.85;;;3.33;;
64244;SDS011;50584;29.058;-110.966;2023-07-02T07:54:41;5.55;;;3.55;;
64244;SDS011;50584;29.058;-110.966;2023-07-02T07:57:07;6.80;;;3.60;;
64244;SDS011;50584;29.058;-110.966;2023-07-02T07:59:32;10.88;;;3.70;;
64244;SDS011;50584;29.058;-110.966;2023-07-02T08:01:58;11.85;;;3.40;;
64244;SDS011;50584;29.058;-110.966;2023-07-02T08:04:24;8.43;;;3.40;;
64244;SDS011;50584;29.058;-110.966;2023-07-02T08:06:49;7.97;;;3.20;;
64244;SDS011;50584;29.058;-110.966;2023-07-02T08:09:15;6.18;;;3.20;;
64244;SDS011;50584;29.058;-110.966;2023-07-02T08:11:41;9.93;;;3.58;;
64244;SDS011;50584;29.058;-110.966;2023-07-02T08:14:07;9.77;;;3.40;;
64244;SDS011;50584;29.058;-110.966;2023-07-02T08:16:33;4.70;;;3.60;;
64244;SDS011;50584;29.058;-110.966;2023-07-02T08:18:58;6.10;;;3.25;;
64244;SDS011;50584;29.058;-110.966;2023-07-02T08:21:24;6.97;;;3.20;;
64244;SDS011;50584;29.058;-110.966;2023-07-02T08:23:50;5.50;;;3.65;;
64244;SDS011;50584;29.058;-110.966;2023-07-02T08:26:16;10.32;;;3.80;;
64244;SDS011;50584;29.058;-110.966;2023-07-02T08:28:41;6.68;;;3.30;;
64244;SDS011;50584;29.058;-110.966;2023-07-02T08:31:07;5.72;;;3.30;;
64244;SDS011;50584;29.058;-110.966;2023-07-02T08:33:33;9.27;;;3.67;;
64244;SDS011;50584;29.058;-110.966;2023-07-02T08:35:59;10.35;;;3.65;;
64244;SDS011;50584;29.058;-110.966;2023-07-02T08:38:26;4.43;;;3.28;;
64244;SDS011;50584;29.058;-110.966;2023-07-02T08:40:52;8.52;;;3.80;;
64244;SDS011;50584;29.058;-110.966;2023-07-02T08:43:18;8.68;;;3.22;;
64244;SDS011;50584;29.058;-110.966;2023-07-02T08:45:44;7.60;;;2.92;;
64244;SDS011;50584;29.058;-110.966;2023-07-02T08:48:10;5.97;;;3.20;;
64244;SDS011;50584;29.058;-110.966;2023-07-02T08:50:36;4.25;;;3.20;;
64244;SDS011;50584;29.058;-110.966;2023-07-02T08:53:02;5.68;;;3.20;;
64244;SDS011;50584;29.058;-110.966;2023-07-02T08:55:28;6.65;;;3.15;;
64244;SDS011;50584;29.058;-110.966;2023-07-02T08:57:57;9.68;;;3.38;;
64244;SDS011;50584;29.058;-110.966;2023-07-02T09:00:25;5.88;;;3.42;;
64244;SDS011;50584;29.058;-110.966;2023-07-02T09:02:51;4.70;;;3.20;;
64244;SDS011;50584;29.058;-110.966;2023-07-02T09:05:16;3.10;;;2.90;;
64244;SDS011;50584;29.058;-110.966;2023-07-02T09:07:43;8.77;;;3.47;;
64244;SDS011;50584;29.058;-110.966;2023-07-02T09:10:09;13.45;;;3.35;;
64244;SDS011;50584;29.058;-110.966;2023-07-02T09:12:35;5.63;;;3.30;;
64244;SDS011;50584;29.058;-110.966;2023-07-02T09:15:02;6.40;;;3.22;;
64244;SDS011;50584;29.058;-110.966;2023-07-02T09:17:32;6.67;;;3.10;;
64244;SDS011;50584;29.058;-110.966;2023-07-02T09:19:58;5.43;;;3.13;;
64244;SDS011;50584;29.058;-110.966;2023-07-02T09:22:27;5.97;;;2.97;;
64244;SDS011;50584;29.058;-110.966;2023-07-02T09:24:57;4.28;;;3.20;;
64244;SDS011;50584;29.058;-110.966;2023-07-02T09:27:36;3.00;;;2.70;;
64244;SDS011;50584;29.058;-110.966;2023-07-02T09:30:05;5.20;;;3.10;;
64244;SDS011;50584;29.058;-110.966;2023-07-02T09:32:31;6.00;;;2.92;;
64244;SDS011;50584;29.058;-110.966;2023-07-02T09:34:58;4.13;;;2.88;;
64244;SDS011;50584;29.058;-110.966;2023-07-02T09:37:24;2.92;;;2.60;;
64244;SDS011;50584;29.058;-110.966;2023-07-02T09:39:50;4.75;;;2.97;;
64244;SDS011;50584;29.058;-110.966;2023-07-02T09:42:19;8.88;;;3.10;;
64244;SDS011;50584;29.058;-110.966;2023-07-02T09:44:46;9.27;;;2.60;;
64244;SDS011;50584;29.058;-110.966;2023-07-02T09:47:12;9.85;;;3.25;;
64244;SDS011;50584;29.058;-110.966;2023-07-02T09:49:39;3.15;;;2.95;;
64244;SDS011;50584;29.058;-110.966;2023-07-02T09:52:06;4.15;;;3.20;;
64244;SDS011;50584;29.058;-110.966;2023-07-02T09:54:32;7.45;;;2.97;;
64244;SDS011;50584;29.058;-110.966;2023-07-02T09:57:01;7.70;;;3.13;;
64244;SDS011;50584;29.058;-110.966;2023-07-02T09:59:27;10.27;;;2.90;;
64244;SDS011;50584;29.058;-110.966;2023-07-02T10:01:53;8.68;;;2.90;;
64244;SDS011;50584;29.058;-110.966;2023-07-02T10:04:19;12.02;;;3.30;;
64244;SDS011;50584;29.058;-110.966;2023-07-02T10:09:11;7.68;;;2.85;;
64244;SDS011;50584;29.058;-110.966;2023-07-02T10:11:37;8.77;;;3.00;;
64244;SDS011;50584;29.058;-110.966;2023-07-02T10:14:03;7.30;;;3.05;;
64244;SDS011;50584;29.058;-110.966;2023-07-02T10:16:28;5.70;;;2.85;;
64244;SDS011;50584;29.058;-110.966;2023-07-02T10:19:10;6.60;;;2.95;;
64244;SDS011;50584;29.058;-110.966;2023-07-02T10:21:35;8.88;;;3.30;;
64244;SDS011;50584;29.058;-110.966;2023-07-02T10:24:11;5.85;;;2.72;;
64244;SDS011;50584;29.058;-110.966;2023-07-02T10:26:37;4.25;;;2.90;;
64244;SDS011;50584;29.058;-110.966;2023-07-02T10:29:03;9.63;;;3.28;;
64244;SDS011;50584;29.058;-110.966;2023-07-02T10:31:29;9.90;;;3.00;;
64244;SDS011;50584;29.058;-110.966;2023-07-02T10:33:55;6.57;;;3.00;;
64244;SDS011;50584;29.058;-110.966;2023-07-02T10:36:22;8.45;;;2.85;;
64244;SDS011;50584;29.058;-110.966;2023-07-02T10:38:49;4.25;;;2.65;;
64244;SDS011;50584;29.058;-110.966;2023-07-02T10:41:28;4.45;;;3.30;;
64244;SDS011;50584;29.058;-110.966;2023-07-02T10:43:54;5.18;;;2.60;;
64244;SDS011;50584;29.058;-110.966;2023-07-02T10:46:20;10.35;;;3.80;;
64244;SDS011;50584;29.058;-110.966;2023-07-02T10:48:56;7.85;;;3.03;;
64244;SDS011;50584;29.058;-110.966;2023-07-02T10:51:22;6.70;;;3.20;;
64244;SDS011;50584;29.058;-110.966;2023-07-02T10:53:59;9.05;;;3.20;;
64244;SDS011;50584;29.058;-110.966;2023-07-02T10:56:25;3.58;;;2.80;;
64244;SDS011;50584;29.058;-110.966;2023-07-02T10:58:53;6.25;;;3.33;;
64244;SDS011;50584;29.058;-110.966;2023-07-02T11:01:29;6.35;;;3.05;;
64244;SDS011;50584;29.058;-110.966;2023-07-02T11:03:56;7.50;;;3.25;;
64244;SDS011;50584;29.058;-110.966;2023-07-02T11:06:22;5.63;;;3.10;;
64244;SDS011;50584;29.058;-110.966;2023-07-02T11:08:48;5.63;;;3.28;;
64244;SDS011;50584;29.058;-110.966;2023-07-02T11:11:14;4.80;;;3.25;;
64244;SDS011;50584;29.058;-110.966;2023-07-02T11:13:44;9.75;;;3.20;;
64244;SDS011;50584;29.058;-110.966;2023-07-02T11:16:25;7.97;;;3.38;;
64244;SDS011;50584;29.058;-110.966;2023-07-02T11:19:08;10.70;;;3.83;;
64244;SDS011;50584;29.058;-110.966;2023-07-02T11:21:34;7.93;;;3.75;;
64244;SDS011;50584;29.058;-110.966;2023-07-02T11:26:36;7.68;;;3.20;;
64244;SDS011;50584;29.058;-110.966;2023-07-02T11:29:02;9.93;;;2.97;;
64244;SDS011;50584;29.058;-110.966;2023-07-02T11:31:27;5.72;;;3.20;;
64244;SDS011;50584;29.058;-110.966;2023-07-02T11:33:53;7.47;;;3.50;;
64244;SDS011;50584;29.058;-110.966;2023-07-02T11:36:23;5.75;;;3.20;;
64244;SDS011;50584;29.058;-110.966;2023-07-02T11:38:50;9.68;;;3.70;;
64244;SDS011;50584;29.058;-110.966;2023-07-02T11:41:17;7.82;;;3.53;;
64244;SDS011;50584;29.058;-110.966;2023-07-02T11:43:43;6.93;;;3.50;;
64244;SDS011;50584;29.058;-110.966;2023-07-02T11:46:08;9.20;;;3.78;;
64244;SDS011;50584;29.058;-110.966;2023-07-02T11:48:34;8.68;;;3.60;;
64244;SDS011;50584;29.058;-110.966;2023-07-02T11:51:00;6.45;;;3.33;;
64244;SDS011;50584;29.058;-110.966;2023-07-02T11:53:26;4.57;;;3.42;;
64244;SDS011;50584;29.058;-110.966;2023-07-02T11:55:51;9.80;;;3.80;;
64244;SDS011;50584;29.058;-110.966;2023-07-02T11:58:17;5.65;;;3.58;;
64244;SDS011;50584;29.058;-110.966;2023-07-02T12:00:43;3.90;;;2.83;;
64244;SDS011;50584;29.058;-110.966;2023-07-02T12:03:09;4.82;;;3.35;;
64244;SDS011;50584;29.058;-110.966;2023-07-02T12:05:35;8.00;;;3.50;;
64244;SDS011;50584;29.058;-110.966;2023-07-02T12:08:01;11.52;;;3.80;;
64244;SDS011;50584;29.058;-110.966;2023-07-02T12:10:27;10.05;;;3.67;;
64244;SDS011;50584;29.058;-110.966;2023-07-02T12:12:53;6.00;;;3.53;;
64244;SDS011;50584;29.058;-110.966;2023-07-02T12:15:18;8.85;;;3.70;;
64244;SDS011;50584;29.058;-110.966;2023-07-02T12:17:44;7.63;;;3.28;;
64244;SDS011;50584;29.058;-110.966;2023-07-02T12:20:10;16.83;;;3.53;;
64244;SDS011;50584;29.058;-110.966;2023-07-02T12:22:36;6.85;;;4.03;;
64244;SDS011;50584;29.058;-110.966;2023-07-02T12:25:01;21.05;;;3.72;;
64244;SDS011;50584;29.058;-110.966;2023-07-02T12:27:27;20.33;;;3.33;;
64244;SDS011;50584;29.058;-110.966;2023-07-02T12:29:53;19.20;;;4.28;;
64244;SDS011;50584;29.058;-110.966;2023-07-02T12:32:20;14.02;;;3.85;;
64244;SDS011;50584;29.058;-110.966;2023-07-02T12:34:46;10.38;;;3.83;;
64244;SDS011;50584;29.058;-110.966;2023-07-02T12:37:12;19.00;;;3.78;;
64244;SDS011;50584;29.058;-110.966;2023-07-02T12:39:42;11.68;;;3.55;;
64244;SDS011;50584;29.058;-110.966;2023-07-02T12:42:08;9.80;;;3.63;;
64244;SDS011;50584;29.058;-110.966;2023-07-02T12:44:33;8.95;;;3.28;;
64244;SDS011;50584;29.058;-110.966;2023-07-02T12:46:59;11.32;;;3.80;;
64244;SDS011;50584;29.058;-110.966;2023-07-02T12:49:25;10.32;;;3.70;;
64244;SDS011;50584;29.058;-110.966;2023-07-02T12:51:51;12.18;;;3.92;;
64244;SDS011;50584;29.058;-110.966;2023-07-02T12:54:16;8.27;;;3.60;;
64244;SDS011;50584;29.058;-110.966;2023-07-02T12:56:42;12.13;;;4.00;;
64244;SDS011;50584;29.058;-110.966;2023-07-02T12:59:08;8.55;;;4.10;;
64244;SDS011;50584;29.058;-110.966;2023-07-02T13:01:34;10.43;;;3.15;;
64244;SDS011;50584;29.058;-110.966;2023-07-02T13:03:59;10.50;;;3.58;;
64244;SDS011;50584;29.058;-110.966;2023-07-02T13:06:26;7.65;;;3.08;;
64244;SDS011;50584;29.058;-110.966;2023-07-02T13:08:53;7.22;;;3.42;;
64244;SDS011;50584;29.058;-110.966;2023-07-02T13:11:21;12.00;;;3.85;;
64244;SDS011;50584;29.058;-110.966;2023-07-02T13:13:46;8.48;;;3.00;;
64244;SDS011;50584;29.058;-110.966;2023-07-02T13:16:13;14.75;;;3.33;;
64244;SDS011;50584;29.058;-110.966;2023-07-02T13:18:38;16.08;;;3.80;;
64244;SDS011;50584;29.058;-110.966;2023-07-02T13:21:04;12.43;;;3.28;;
64244;SDS011;50584;29.058;-110.966;2023-07-02T13:23:30;20.15;;;3.40;;
64244;SDS011;50584;29.058;-110.966;2023-07-02T13:25:56;9.93;;;3.40;;
64244;SDS011;50584;29.058;-110.966;2023-07-02T13:28:21;5.68;;;2.83;;
64244;SDS011;50584;29.058;-110.966;2023-07-02T13:30:48;11.90;;;3.13;;
64244;SDS011;50584;29.058;-110.966;2023-07-02T13:33:14;16.13;;;3.10;;
64244;SDS011;50584;29.058;-110.966;2023-07-02T13:35:40;36.03;;;4.10;;
64244;SDS011;50584;29.058;-110.966;2023-07-02T13:38:06;58.90;;;4.55;;
64244;SDS011;50584;29.058;-110.966;2023-07-02T13:40:32;33.20;;;3.50;;
64244;SDS011;50584;29.058;-110.966;2023-07-02T13:42:58;10.30;;;3.40;;
64244;SDS011;50584;29.058;-110.966;2023-07-02T13:45:23;15.70;;;2.88;;
64244;SDS011;50584;29.058;-110.966;2023-07-02T13:47:49;8.15;;;2.88;;
64244;SDS011;50584;29.058;-110.966;2023-07-02T13:50:15;10.35;;;3.15;;
64244;SDS011;50584;29.058;-110.966;2023-07-02T13:52:41;7.97;;;3.05;;
64244;SDS011;50584;29.058;-110.966;2023-07-02T13:55:06;5.90;;;2.85;;
64244;SDS011;50584;29.058;-110.966;2023-07-02T13:57:32;8.50;;;2.65;;
64244;SDS011;50584;29.058;-110.966;2023-07-02T13:59:58;7.13;;;2.60;;
64244;SDS011;50584;29.058;-110.966;2023-07-02T14:02:24;4.38;;;2.47;;
64244;SDS011;50584;29.058;-110.966;2023-07-02T14:04:49;6.40;;;2.65;;
64244;SDS011;50584;29.058;-110.966;2023-07-02T14:07:15;6.93;;;2.97;;